Tiempo atmosférico en la estación meteorológica de Benasque, Huesca (1120 m.)



Fecha
DESCASC
Temp. máxima en grados centígrados (hora)
DESCASC
Temp. mínima en grados centígrados (hora)
DESCASC
Temp. media en grados centígrados
DESCASC
Racha de viento máxima en m/sg (hora)
DESCASC
Velocidad máxima media en intervalos de 10 minutos(hora)
DESCASC
Precipitaciones diarias en mm
DESCASC
Precipitaciones de 00:00 a 06:00 en mm
DESCASC
Precipitaciones de 06:00 a 12:00 en mm
DESCASC
Precipitaciones de 12:00 a 18:00 en mm
DESCASC
Precipitaciones de 18:00 a 24:00 en mm
DESCASC
18-08-2019 32.6 (15:00) 11.9 (07:20) 22.2 11.39 (15:10) 5 (19:00) 0 0 0 0 0
17-08-2019 32.9 (15:30) 10 (06:10) 21.5 9.44 (14:30) 4.72 (13:30) 0 0 0 0 0
16-08-2019 30.6 (16:00) 7.7 (07:00) 19.2 9.17 (17:00) 4.72 (14:10) 0 0 0 0 0
15-08-2019 29.7 (14:30) 9 (00:00) 19.4 9.17 (16:00) 5.28 (15:30) 0 0 0 0 0
14-08-2019 29.7 (16:50) 6.6 (00:00) 18.2 9.72 (16:20) 4.17 (14:20) 0 0 0 0 0
13-08-2019 25.9 (16:10) 9.8 (00:00) 17.8 10.28 (00:10) 4.72 (12:50) 0 0 0 0 0
12-08-2019 23 (14:40) 12.4 (00:00) 17.7 15 (20:00) 7.22 (20:00) 3.8 3.8 0 0 0
11-08-2019 27.6 (15:50) 16.6 (00:00) 22.1 11.67 (15:50) 5.56 (05:50) 0 0 0 0 0
10-08-2019 29.6 (16:30) 17.6 (00:00) 23.6 11.11 (14:50) 5.83 (15:50) 0 0 0 0 0
09-08-2019 33 (16:50) 14.5 (00:00) 23.8 11.11 (15:10) 5.83 (15:10) 0 0 0 0 0
08-08-2019 31.4 (16:10) 14.5 (00:00) 22.9 8.61 (14:30) 4.72 (14:20) 0.4 0.4 0 0 0
07-08-2019 29.7 (13:40) 13.3 (00:00) 21.5 9.72 (15:40) 5.83 (17:10) 0.2 0 0 0 0.2
06-08-2019 33.2 (14:10) 12.9 (00:00) 23.1 9.17 (15:00) 5.28 (16:40) 0 0 0 0 0
05-08-2019 33.2 (16:20) 12.4 (00:00) 22.8 11.39 (15:30) 5.28 (15:30) 0 0 0 0 0
04-08-2019 33.2 (15:40) 12.2 (00:00) 22.7 10.28 (16:00) 5 (14:00) 0 0 0 0 0
03-08-2019 32.3 (15:40) 10.1 (00:00) 21.2 8.89 (14:50) 4.72 (14:50) 0 0 0 0 0
02-08-2019 31 (16:50) 10.9 (00:00) 20.9 8.33 (14:40) 4.17 (14:50) 0 0 0 0 0
01-08-2019 28.9 (17:20) 12.8 (00:00) 20.8 8.89 (14:50) 5.28 (15:10) 1.2 1.2 0 0 0
31-07-2019 28.6 (15:50) 6.6 (00:00) 17.6 8.33 (16:20) 5.28 (18:20) 0 0 0 0 0
30-07-2019 26.8 (14:30) 12 (00:00) 19.4 12.22 (13:20) 5 (17:10) 0 0 0 0 0
29-07-2019 29.5 (16:40) 7.1 (00:00) 18.3 8.61 (16:00) 5.56 (14:20) 0 0 0 0 0
28-07-2019 26.3 (17:20) 11.6 (00:00) 18.9 15 (00:20) 7.22 (01:10) 0 0 0 0 0
27-07-2019 21.2 (14:00) 13.6 (00:00) 17.4 11.94 (22:50) 6.39 (22:30) 7.8 1.4 5.4 0 1
26-07-2019 25.4 (12:00) 14.3 (00:00) 19.8 8.89 (13:00) 5 (13:00) 0.8 0 0 0.8 0
25-07-2019 35.7 (15:30) 12.9 (00:00) 24.3 10 (17:00) 5.28 (16:20) 0 0 0 0 0
24-07-2019 35.9 (13:50) 12.8 (00:00) 24.4 10.83 (17:20) 5.28 (17:50) 0 0 0 0 0
23-07-2019 35.6 (14:00) 12.4 (00:00) 24 8.61 (17:00) 3.89 (15:20) 0 0 0 0 0
22-07-2019 35.1 (15:10) 13.2 (00:00) 24.1 9.72 (16:00) 5.28 (16:20) 0 0 0 0 0
21-07-2019 33.3 (16:00) 14 (00:00) 23.6 9.17 (16:30) 5.56 (16:30) 0 0 0 0 0

Gráficas

Temp. máximas Temp. mínimas Temp. medias Precipitaciones Rachas de viento máximas Velocidades máximas media en intervalos de 10 minutos

Datos horarios

Fecha y hora oficial Temperatura (ºC) Velocidad del viento (km/h) Dirección del viento Racha (km/h) Dirección de racha Precipitación (mm) Presión (hPa) Tendencia (hPa) Humedad (%)
2019-08-19 23:00:00 14.8 3 Este 12 Este 0.8 -- -- 91
2019-08-19 22:00:00 15.4 4 Sudeste 14 Sudoeste 0.6 -- -- 90
2019-08-19 21:00:00 18.1 5 Este 14 Noroeste 0 -- -- 73
2019-08-19 20:00:00 18.8 2 Nordeste 11 Oeste 0.4 -- -- 85
2019-08-19 19:00:00 22.5 6 Sudoeste 21 Sudoeste 0 -- -- 55
2019-08-19 18:00:00 23.7 13 Oeste 27 Sudoeste 0 -- -- 50
2019-08-19 17:00:00 24.8 19 Sudoeste 37 Sudoeste 0 -- -- 48
2019-08-19 16:00:00 25.1 17 Sudoeste 35 Sudoeste 0 -- -- 46
2019-08-19 15:00:00 25.9 13 Sudoeste 35 Sudoeste 0 -- -- 45
2019-08-19 14:00:00 25.6 15 Sudoeste 36 Oeste 0 -- -- 46
2019-08-19 13:00:00 25.2 17 Sudoeste 32 Sudoeste 0 -- -- 49
2019-08-19 12:00:00 25.4 13 Oeste 28 Sudoeste 0 -- -- 47
2019-08-19 11:00:00 23.4 14 Sudoeste 25 Sudoeste 0 -- -- 53
2019-08-19 10:00:00 21.5 2 Sudoeste 9 Sudeste 0 -- -- 57
2019-08-19 09:00:00 17.3 0 Calma 5 Oeste 0 -- -- 75
2019-08-19 08:00:00 14.7 2 Sudeste 4 Este 0 -- -- 86
2019-08-19 07:00:00 14.7 0 Calma 4 Sudoeste 0 -- -- 85
2019-08-19 06:00:00 15.4 0 Calma 4 Sudeste 0 -- -- 83
2019-08-19 05:00:00 15 0 Calma 5 Este 0 -- -- 84
2019-08-19 04:00:00 14.8 0 Calma 6 Sudeste 0 -- -- 84
2019-08-19 03:00:00 15.4 3 Sudeste 6 Este 0 -- -- 82
2019-08-19 02:00:00 15.6 0 Calma 6 Sudeste 0 -- -- 84
2019-08-19 01:00:00 16.6 3 Nordeste 6 Este 0 -- -- 79
2019-08-19 00:00:00 19.1 4 Este 9 Este 0 -- -- 66
2019-08-18 23:00:00 19.2 2 Nordeste 5 Sudeste 0 -- -- 56
2019-08-18 22:00:00 21.8 3 Sur 13 Sur 0 -- -- 48
2019-08-18 21:00:00 25.3 2 Sur 21 Sudoeste 0 -- -- 37
2019-08-18 20:00:00 27.8 8 Sur 25 Sur 0 -- -- 28
2019-08-18 19:00:00 30.2 18 Sudoeste 35 Sudoeste 0 -- -- 23
2019-08-18 18:00:00 31.7 11 Sudoeste 37 Sudoeste 0 -- -- 23
2019-08-18 17:00:00 30.6 13 Sur 41 Sur 0 -- -- 26
2019-08-18 16:00:00 31 14 Sudoeste 41 Sudoeste 0 -- -- 25
2019-08-18 15:00:00 32.6 13 Sur 38 Sudoeste 0 -- -- 24
2019-08-18 14:00:00 32.3 12 Sur 32 Sudeste 0 -- -- 25
2019-08-18 13:00:00 31.4 12 Sur 29 Sudoeste 0 -- -- 24
2019-08-18 12:00:00 28.8 9 Sudoeste 15 Sudoeste 0 -- -- 38
2019-08-18 11:00:00 26.9 4 Sur 8 Sudoeste 0 -- -- 43
2019-08-18 10:00:00 21.9 2 Norte 5 Este 0 -- -- 58
2019-08-18 09:00:00 13.8 0 Calma 5 Este 0 -- -- 89
2019-08-18 08:00:00 12.2 2 Noroeste 5 Sudeste 0 -- -- 91
2019-08-18 07:00:00 12 0 Calma 3 Sudeste 0 -- -- 92
2019-08-18 06:00:00 12.8 0 Calma 4 Este 0 -- -- 87
2019-08-18 05:00:00 12.8 0 Calma 3 Este 0 -- -- 89
2019-08-18 04:00:00 13.6 2 Este 3 Sudeste 0 -- -- 85
2019-08-18 03:00:00 14.2 2 Este 5 Sudeste 0 -- -- 80
2019-08-18 02:00:00 15 0 Calma 6 Este 0 -- -- 72
2019-08-18 01:00:00 15.8 3 Nordeste 6 Sudeste 0 -- -- 68
2019-08-18 00:00:00 16.9 2 Este 6 Sudeste 0 -- -- 61
2019-08-17 23:00:00 18.1 0 Calma 6 Norte 0 -- -- 60
2019-08-17 22:00:00 20.3 0 Calma 9 Este 0 -- -- 56
2019-08-17 21:00:00 23.3 4 Oeste 10 Oeste 0 -- -- 48
2019-08-17 20:00:00 26.3 3 Sudoeste 20 Sudoeste 0 -- -- 39
2019-08-17 19:00:00 28.7 10 Sudoeste 30 Sudoeste 0 -- -- 35
2019-08-17 18:00:00 31.9 10 Sur 27 Sudoeste 0 -- -- 29
2019-08-17 17:00:00 32.4 17 Sudoeste 32 Sudoeste 0 -- -- 26
2019-08-17 16:00:00 32.2 17 Sudoeste 33 Sudoeste 0 -- -- 26
2019-08-17 15:00:00 32.5 9 Sur 34 Sudoeste 0 -- -- 26
2019-08-17 14:00:00 32 9 Sudoeste 30 Oeste 0 -- -- 27
2019-08-17 13:00:00 29.5 16 Sudoeste 29 Oeste 0 -- -- 31
2019-08-17 12:00:00 28.9 5 Sur 15 Oeste 0 -- -- 31
2019-08-17 11:00:00 25.5 2 Nordeste 6 Este 0 -- -- 37
2019-08-17 10:00:00 21.3 0 Calma 5 Este 0 -- -- 45
2019-08-17 09:00:00 11.8 0 Calma 4 Este 0 -- -- 82
2019-08-17 08:00:00 10.7 3 Este 5 Nordeste 0 -- -- 79
2019-08-17 07:00:00 10.2 0 Calma 5 Sudeste 0 -- -- 80
2019-08-17 06:00:00 10.3 0 Calma 4 Este 0 -- -- 79
2019-08-17 05:00:00 10.5 0 Calma 3 Nordeste 0 -- -- 77
2019-08-17 04:00:00 11.2 0 Calma 5 Nordeste 0 -- -- 73
2019-08-17 03:00:00 12.1 2 Oeste 5 Sudeste 0 -- -- 70
2019-08-17 02:00:00 12.7 0 Calma 6 Sudeste 0 -- -- 68
2019-08-17 01:00:00 13.5 2 Este 5 Este 0 -- -- 66
2019-08-17 00:00:00 14.2 3 Sudeste 5 Sudeste 0 -- -- 63
2019-08-16 23:00:00 16 2 Sudeste 6 Nordeste 0 -- -- 57
2019-08-16 22:00:00 18.3 2 Este 6 Norte 0 -- -- 51
2019-08-16 21:00:00 21.2 3 Nordeste 10 Oeste 0 -- -- 43
2019-08-16 20:00:00 25.4 4 Oeste 23 Sudoeste 0 -- -- 34
2019-08-16 19:00:00 29.1 8 Sur 27 Sudoeste 0 -- -- 28
2019-08-16 18:00:00 30.1 9 Sudoeste 31 Sudoeste 0 -- -- 25
2019-08-16 17:00:00 30.1 12 Sudoeste 33 Sudoeste 0 -- -- 24
2019-08-16 16:00:00 30.6 10 Sudoeste 32 Oeste 0 -- -- 23
2019-08-16 15:00:00 30.4 12 Sudoeste 28 Oeste 0 -- -- 23
2019-08-16 14:00:00 28.7 13 Sudoeste 27 Sudoeste 0 -- -- 24
2019-08-16 13:00:00 27.4 15 Oeste 24 Sudoeste 0 -- -- 26
2019-08-16 12:00:00 24.7 7 Oeste 14 Sudoeste 0 -- -- 32
2019-08-16 11:00:00 22.7 3 Oeste 8 Oeste 0 -- -- 36
2019-08-16 10:00:00 18.9 2 Nordeste 5 Nordeste 0 -- -- 49
2019-08-16 09:00:00 9 2 Este 5 Nordeste 0 -- -- 86
2019-08-16 08:00:00 8 3 Este 5 Sudeste 0 -- -- 86
2019-08-16 07:00:00 7.7 0 Calma 5 Este 0 -- -- 88
2019-08-16 06:00:00 8.4 0 Calma 4 Este 0 -- -- 85
2019-08-16 05:00:00 8.9 0 Calma 5 Sudeste 0 -- -- 83
2019-08-16 04:00:00 9.7 2 Este 4 Sudeste 0 -- -- 80
2019-08-16 03:00:00 10.1 0 Calma 4 Sudeste 0 -- -- 77
2019-08-16 02:00:00 11.4 4 Sudeste 6 Sudoeste 0 -- -- 73
2019-08-16 01:00:00 12 2 Este 5 Sudeste 0 -- -- 72
2019-08-16 00:00:00 13.2 0 Calma 4 Este 0 -- -- 69
2019-08-15 23:00:00 14.7 0 Calma 6 Noroeste 0 -- -- 65
2019-08-15 22:00:00 16.6 2 Sur 11 Este 0 -- -- 61
2019-08-15 21:00:00 20.5 4 Nordeste 26 Nordeste 0 -- -- 51
2019-08-15 20:00:00 21.4 11 Norte 32 Norte 0 -- -- 50
2019-08-15 19:00:00 24.2 15 Norte 32 Nordeste 0 -- -- 44
2019-08-15 18:00:00 26.2 10 Sur 27 Sudoeste 0 -- -- 33
2019-08-15 17:00:00 27.2 8 Sur 31 Sudoeste 0 -- -- 35
2019-08-15 16:00:00 28.8 18 Sudoeste 33 Sudoeste 0 -- -- 33
2019-08-15 15:00:00 29 12 Sudoeste 31 Sudoeste 0 -- -- 33
2019-08-15 14:00:00 28.2 10 Sur 32 Sudoeste 0 -- -- 34
2019-08-15 13:00:00 26.7 15 Sudoeste 31 Oeste 0 -- -- 37
2019-08-15 12:00:00 25.6 10 Sudoeste 23 Sudoeste 0 -- -- 41
2019-08-15 11:00:00 22.6 5 Sudoeste 12 Sudoeste 0 -- -- 46
2019-08-15 10:00:00 19.3 0 Calma 7 Este 0 -- -- 53
2019-08-15 09:00:00 12 0 Calma 0 Calma 0 -- -- 85
2019-08-15 08:00:00 9.5 0 Calma -- -- 0 -- -- 89
2019-08-15 07:00:00 9 0 Calma -- -- 0 -- -- 91
2019-08-15 06:00:00 9.9 0 Calma -- -- 0 -- -- 88
2019-08-15 05:00:00 10.1 0 Calma -- -- 0 -- -- 86
2019-08-15 04:00:00 11.1 0 Calma -- -- 0 -- -- 82
2019-08-15 03:00:00 11.7 2 Este 8 Sudeste 0 -- -- 80
2019-08-15 02:00:00 12.3 0 Calma 4 Este 0 -- -- 77
2019-08-15 01:00:00 13.5 3 Sudeste 6 Este 0 -- -- 70
2019-08-15 00:00:00 13.9 0 Calma 4 Este 0 -- -- 70
2019-08-14 23:00:00 15.4 2 Sudeste 6 Sudoeste 0 -- -- 65
2019-08-14 22:00:00 18.5 5 Este 23 Nordeste 0 -- -- 56
2019-08-14 21:00:00 21.7 9 Nordeste 29 Norte 0 -- -- 47
2019-08-14 20:00:00 23.1 12 Norte 27 Norte 0 -- -- 43
2019-08-14 19:00:00 27.3 9 Oeste 26 Oeste 0 -- -- 32
2019-08-14 18:00:00 29 8 Sur 22 Oeste 0 -- -- 25
2019-08-14 17:00:00 29 9 Sur 35 Sudoeste 0 -- -- 25
2019-08-14 16:00:00 29.3 14 Oeste 31 Oeste 0 -- -- 25
2019-08-14 15:00:00 28.5 15 Oeste 27 Sudoeste 0 -- -- 27
2019-08-14 14:00:00 27.6 14 Oeste 23 Sudoeste 0 -- -- 28
2019-08-14 13:00:00 26 6 Sudoeste 15 Sudoeste 0 -- -- 29
2019-08-14 12:00:00 22.6 9 Sudoeste 19 Sudoeste 0 -- -- 37
2019-08-14 11:00:00 21.1 3 Oeste 8 Nordeste 0 -- -- 37
2019-08-14 10:00:00 16.9 3 Este 5 Este 0 -- -- 55
2019-08-14 09:00:00 8.3 3 Este 4 Este 0 -- -- 90
2019-08-14 08:00:00 6.8 0 Calma 5 Sudeste 0 -- -- 92
2019-08-14 07:00:00 6.6 3 Sudeste 5 Este 0 -- -- 92
2019-08-14 06:00:00 7 0 Calma 5 Sudeste 0 -- -- 91
2019-08-14 05:00:00 7.5 4 Nordeste 8 Sudeste 0 -- -- 89
2019-08-14 04:00:00 7.8 2 Este 5 Sudeste 0 -- -- 88
2019-08-14 03:00:00 8.5 0 Calma 6 Sudoeste 0 -- -- 87
2019-08-14 02:00:00 9.3 3 Sudeste 6 Sudoeste 0 -- -- 84
2019-08-14 01:00:00 10.3 0 Calma 4 Sudeste 0 -- -- 79
2019-08-14 00:00:00 11.3 0 Calma 7 Sudeste 0 -- -- 75
2019-08-13 23:00:00 12.4 0 Calma 5 Sudeste 0 -- -- 71
2019-08-13 22:00:00 14.5 2 Este 6 Este 0 -- -- 65
2019-08-13 21:00:00 16.9 3 Sudeste 13 Norte 0 -- -- 59
2019-08-13 20:00:00 19.6 4 Nordeste 18 Norte 0 -- -- 46
2019-08-13 19:00:00 23.9 5 Sudoeste 24 Sur 0 -- -- 36
2019-08-13 18:00:00 23.4 15 Oeste 27 Sudoeste 0 -- -- 37
2019-08-13 17:00:00 24.7 15 Sudoeste 28 Oeste 0 -- -- 34
2019-08-13 16:00:00 25.6 10 Sudoeste 28 Sudoeste 0 -- -- 33
2019-08-13 15:00:00 24.2 17 Sudoeste 30 Sudoeste 0 -- -- 34
2019-08-13 14:00:00 23.5 13 Oeste 25 Sudoeste 0 -- -- 37
2019-08-13 13:00:00 20.9 17 Oeste 26 Sudoeste 0 -- -- 40
2019-08-13 12:00:00 19.2 8 Sudoeste 15 Sudoeste 0 -- -- 48
2019-08-13 11:00:00 16.6 3 Sudoeste 9 Oeste 0 -- -- 54
2019-08-13 10:00:00 15.5 3 Este 8 Oeste 0 -- -- 58
2019-08-13 09:00:00 12.8 2 Norte 7 Sudoeste 0 -- -- 69
2019-08-13 08:00:00 10.4 0 Calma 6 Oeste 0 -- -- 81
2019-08-13 07:00:00 9.8 2 Sudeste 6 Oeste 0 -- -- 81
2019-08-13 06:00:00 10 3 Sudeste 7 Noroeste 0 -- -- 80
2019-08-13 05:00:00 10.2 2 Este 6 Este 0 -- -- 78
2019-08-13 04:00:00 10.8 4 Este 13 Norte 0 -- -- 73
2019-08-13 03:00:00 11.9 5 Este 15 Sudeste 0 -- -- 64
2019-08-13 02:00:00 13.5 5 Este 34 Este 0 -- -- 58
2019-08-13 01:00:00 14.6 11 Nordeste 37 Este 0 -- -- 54
2019-08-13 00:00:00 15 14 Nordeste 42 Nordeste 0 -- -- 53
2019-08-12 23:00:00 15.3 15 Nordeste 48 Este 0 -- -- 53
2019-08-12 22:00:00 15.7 20 Nordeste 53 Este 0 -- -- 53
2019-08-12 21:00:00 16.1 20 Nordeste 49 Este 0 -- -- 51
2019-08-12 20:00:00 16.7 26 Nordeste 54 Este 0 -- -- 50
2019-08-12 19:00:00 18.4 26 Nordeste 50 Nordeste 0 -- -- 46
2019-08-12 18:00:00 20.4 16 Nordeste 44 Este 0 -- -- 43
2019-08-12 17:00:00 20.9 15 Nordeste 39 Nordeste 0 -- -- 43
2019-08-12 16:00:00 22 15 Nordeste 36 Nordeste 0 -- -- 42
2019-08-12 15:00:00 20.3 14 Nordeste 27 Norte 0 -- -- 45
2019-08-12 14:00:00 21.8 10 Nordeste 25 Norte 0 -- -- 42
2019-08-12 13:00:00 21.8 9 Norte 22 Norte 0 -- -- 46
2019-08-12 12:00:00 20.7 8 Norte 23 Noroeste 0 -- -- 53
2019-08-12 11:00:00 19.8 5 Sudoeste 13 Sudoeste 0 -- -- 61
2019-08-12 10:00:00 18.1 4 Sudoeste 6 Sudoeste 0 -- -- 74
2019-08-12 09:00:00 13.8 0 Calma 6 Sudoeste 0 -- -- 96
2019-08-12 08:00:00 12.6 0 Calma 6 Oeste 0 -- -- 98
2019-08-12 07:00:00 12.8 0 Calma 4 Sudeste 0 -- -- 97
2019-08-12 06:00:00 13.5 0 Calma 4 Oeste 0 -- -- 97
2019-08-12 05:00:00 13.8 3 Sudoeste 4 Sudeste 0 -- -- 96
2019-08-12 04:00:00 14.2 2 Este 8 Este 1.8 -- -- 95
2019-08-12 03:00:00 14.4 4 Este 14 Sudoeste 0.2 -- -- 92
2019-08-12 02:00:00 14.6 3 Este 9 Sudeste 1.8 -- -- 90
2019-08-12 01:00:00 16.7 3 Este 5 Nordeste 0 -- -- 60
2019-08-12 00:00:00 16.6 3 Sudeste 5 Sudeste 0 -- -- 60
2019-08-11 23:00:00 17.9 3 Sudoeste 10 Sudoeste 0 -- -- 55
2019-08-11 22:00:00 20 3 Sudoeste 11 Sur 0 -- -- 45
2019-08-11 21:00:00 22.3 5 Sudeste 17 Sudeste 0 -- -- 37
2019-08-11 20:00:00 24.2 8 Sudeste 22 Sudoeste 0 -- -- 33
2019-08-11 19:00:00 25 9 Sur 23 Sudoeste 0 -- -- 32
2019-08-11 18:00:00 26.5 9 Sur 39 Sudoeste 0 -- -- 30
2019-08-11 17:00:00 25.1 13 Sur 39 Sur 0 -- -- 37
2019-08-11 16:00:00 27.2 13 Sudoeste 42 Sudoeste 0 -- -- 33
2019-08-11 15:00:00 25.3 15 Oeste 27 Sur 0 -- -- 44
2019-08-11 14:00:00 23.4 11 Sur 28 Sudoeste 0 -- -- 49
2019-08-11 13:00:00 22.9 7 Sudoeste 32 Sudoeste 0 -- -- 62
2019-08-11 12:00:00 21.2 14 Oeste 31 Sudoeste 0 -- -- 68
2019-08-11 11:00:00 21.5 14 Sudoeste 30 Sudoeste 0 -- -- 66
2019-08-11 10:00:00 22.1 13 Sudoeste 29 Sudoeste 0 -- -- 63
2019-08-11 09:00:00 20.9 13 Sudoeste 28 Oeste 0 -- -- 66
2019-08-11 08:00:00 20.6 13 Sudoeste 26 Sudoeste 0 -- -- 68
2019-08-11 07:00:00 20.6 18 Oeste 35 Sudoeste 0 -- -- 69
2019-08-11 06:00:00 21.4 18 Oeste 33 Sudoeste 0 -- -- 64
2019-08-11 05:00:00 21.2 5 Sur 19 Sudoeste 0 -- -- 56
2019-08-11 04:00:00 20.8 5 Sudoeste 13 Oeste 0 -- -- 54
2019-08-11 03:00:00 19.8 2 Sudoeste 8 Sudoeste 0 -- -- 58
2019-08-11 02:00:00 19.6 2 Oeste 5 Sudeste 0 -- -- 61
2019-08-11 01:00:00 19.3 0 Calma 4 Sudeste 0 -- -- 60
2019-08-11 00:00:00 19.4 2 Este 3 Sudeste 0 -- -- 57
2019-08-10 23:00:00 20.4 0 Calma 5 Oeste 0 -- -- 55
2019-08-10 22:00:00 21.8 0 Calma 10 Sudoeste 0 -- -- 48
2019-08-10 21:00:00 23.5 3 Sur 21 Sur 0 -- -- 39
2019-08-10 20:00:00 25.9 6 Sur 18 Sudoeste 0 -- -- 32
2019-08-10 19:00:00 27 6 Sur 34 Sudoeste 0 -- -- 28
2019-08-10 18:00:00 28.1 10 Sur 39 Sudoeste 0 -- -- 30
2019-08-10 17:00:00 29 19 Sudoeste 40 Sudoeste 0 -- -- 28
2019-08-10 16:00:00 28.9 19 Sudoeste 39 Sudoeste 0 -- -- 31
2019-08-10 15:00:00 28.4 20 Sudoeste 40 Sudoeste 0 -- -- 32
2019-08-10 14:00:00 29 15 Sur 37 Sudoeste 0 -- -- 32
2019-08-10 13:00:00 28 14 Sudoeste 31 Sudoeste 0 -- -- 36
2019-08-10 12:00:00 28.7 10 Sudeste 29 Sudeste 0 -- -- 35
2019-08-10 11:00:00 26.9 9 Sur 20 Sudoeste 0 -- -- 34
2019-08-10 10:00:00 24.6 8 Sur 21 Sudoeste 0 -- -- 41
2019-08-10 09:00:00 20.7 7 Sudoeste 17 Sudoeste 0 -- -- 62
2019-08-10 08:00:00 19.1 6 Oeste 9 Noroeste 0 -- -- 68
2019-08-10 07:00:00 17.8 0 Calma 10 Oeste 0 -- -- 73
2019-08-10 06:00:00 19.3 2 Sudoeste 10 Sudoeste 0 -- -- 67
2019-08-10 05:00:00 21.1 3 Oeste 14 Sudeste 0 -- -- 60
2019-08-10 04:00:00 23 7 Sudeste 21 Sudoeste 0 -- -- 53
2019-08-10 03:00:00 21.2 2 Norte 9 Oeste 0 -- -- 60
2019-08-10 02:00:00 23.2 4 Sudeste 20 Sur 0 -- -- 54
2019-08-10 01:00:00 25.5 7 Sudoeste 25 Sudeste 0 -- -- 46
2019-08-10 00:00:00 22.6 5 Sudoeste 10 Sudoeste 0 -- -- 56
2019-08-09 23:00:00 22 0 Calma 6 Sudeste 0 -- -- 61
2019-08-09 22:00:00 22.2 3 Norte 7 Sudoeste 0 -- -- 61
2019-08-09 21:00:00 23.7 3 Sudoeste 6 Sudoeste 0 -- -- 48
2019-08-09 20:00:00 27.5 2 Sudoeste 21 Sudoeste 0 -- -- 37
2019-08-09 19:00:00 30.6 9 Sudoeste 23 Sur 0 -- -- 31
2019-08-09 18:00:00 30.3 11 Sur 29 Sudoeste 0 -- -- 31
2019-08-09 17:00:00 32.2 17 Sudoeste 33 Sur 0 -- -- 30
2019-08-09 16:00:00 32.6 10 Sur 40 Sudoeste 0 -- -- 29
2019-08-09 15:00:00 32 14 Sudoeste 38 Sudoeste 0 -- -- 28
2019-08-09 14:00:00 31.7 15 Sudoeste 32 Sudoeste 0 -- -- 28
2019-08-09 13:00:00 30.9 14 Sudoeste 34 Sudoeste 0 -- -- 29
2019-08-09 12:00:00 29.5 12 Sudoeste 31 Sudoeste 0 -- -- 33
2019-08-09 11:00:00 28.1 6 Sudoeste 20 Sudoeste 0 -- -- 41
2019-08-09 10:00:00 24.1 3 Este 6 Este 0 -- -- 54
2019-08-09 09:00:00 15.5 2 Este 4 Este 0 -- -- 89
2019-08-09 08:00:00 14.6 0 Calma 5 Sudeste 0 -- -- 88
2019-08-09 07:00:00 14.8 0 Calma 5 Sudeste 0 -- -- 87
2019-08-09 06:00:00 16.3 0 Calma 4 Sudeste 0 -- -- 82
2019-08-09 05:00:00 17.9 2 Sudoeste 4 Sudeste 0 -- -- 77
2019-08-09 04:00:00 18.1 0 Calma 4 Sudeste 0 -- -- 75
2019-08-09 03:00:00 17.7 3 Este 6 Sudoeste 0 -- -- 75
2019-08-09 02:00:00 17.1 0 Calma 5 Oeste 0 -- -- 77
2019-08-09 01:00:00 17 0 Calma 6 Sudeste 0 -- -- 76
2019-08-09 00:00:00 17.3 4 Sudoeste 6 Oeste 0 -- -- 75
2019-08-08 23:00:00 18.5 0 Calma 5 Nordeste 0 -- -- 71
2019-08-08 22:00:00 20.2 2 Este 5 Sudeste 0 -- -- 65
2019-08-08 21:00:00 24 3 Oeste 21 Sudoeste 0 -- -- 53
2019-08-08 20:00:00 25.9 9 Sudoeste 20 Sudoeste 0 -- -- 45
2019-08-08 19:00:00 26.8 11 Sudoeste 24 Sudoeste 0 -- -- 44
2019-08-08 18:00:00 28.1 12 Sudoeste 24 Sudoeste 0 -- -- 42
2019-08-08 17:00:00 30.6 14 Sudoeste 30 Sudoeste 0 -- -- 38
2019-08-08 16:00:00 31.3 10 Sudoeste 31 Sudoeste 0 -- -- 35
2019-08-08 15:00:00 29.7 13 Sudoeste 31 Sudoeste 0 -- -- 38
2019-08-08 14:00:00 29.1 15 Sudoeste 24 Oeste 0 -- -- 39
2019-08-08 13:00:00 27.3 15 Oeste 24 Sudoeste 0 -- -- 43
2019-08-08 12:00:00 25.9 9 Sudoeste 16 Oeste 0 -- -- 47
2019-08-08 11:00:00 23.9 4 Oeste 8 Oeste 0 -- -- 57
2019-08-08 10:00:00 20.8 3 Sudoeste 6 Oeste 0 -- -- 74
2019-08-08 09:00:00 15.3 2 Este 4 Sudeste 0 -- -- 98
2019-08-08 08:00:00 15 2 Sur 6 Sudeste 0 -- -- 98
2019-08-08 07:00:00 14.8 3 Sur 6 Sudoeste 0 -- -- 98
2019-08-08 06:00:00 15.1 0 Calma 4 Este 0 -- -- 98
2019-08-08 05:00:00 15.2 0 Calma 8 Sudoeste 0.4 -- -- 97
2019-08-08 04:00:00 15.6 2 Sudeste 5 Sudoeste 0 -- -- 95
2019-08-08 03:00:00 15.5 2 Sudoeste 5 Oeste 0 -- -- 95
2019-08-08 02:00:00 15.4 0 Calma 7 Sudoeste 0 -- -- 95
2019-08-08 01:00:00 15.1 3 Sudeste 5 Sudeste 0 -- -- 97
2019-08-08 00:00:00 14.7 0 Calma 6 Sudoeste 0 -- -- 96
2019-08-07 23:00:00 15.2 0 Calma 5 Noroeste 0 -- -- 96
2019-08-07 22:00:00 16 3 Sudeste 5 Sudeste 0 -- -- 94
2019-08-07 21:00:00 17.3 2 Sudeste 7 Este 0.2 -- -- 91
2019-08-07 20:00:00 18.8 2 Sudeste 17 Sudeste 0 -- -- 79
2019-08-07 19:00:00 19.1 6 Sur 31 Oeste 0 -- -- 77
2019-08-07 18:00:00 22.7 16 Sudoeste 33 Oeste 0 -- -- 56
2019-08-07 17:00:00 24.2 17 Oeste 33 Oeste 0 -- -- 54
2019-08-07 16:00:00 25.1 20 Oeste 35 Sudoeste 0 -- -- 51
2019-08-07 15:00:00 26.1 6 Sudoeste 23 Sudoeste 0 -- -- 44
2019-08-07 14:00:00 27.7 8 Sudoeste 29 Sudoeste 0 -- -- 39
2019-08-07 13:00:00 28 7 Sur 29 Sudoeste 0 -- -- 41
2019-08-07 12:00:00 27 4 Sudoeste 12 Oeste 0 -- -- 48
2019-08-07 11:00:00 23.2 3 Sudeste 9 Sudoeste 0 -- -- 57
2019-08-07 10:00:00 22.2 3 Sudoeste 10 Sudoeste 0 -- -- 58
2019-08-07 09:00:00 16.7 2 Nordeste 7 Sudeste 0 -- -- 75
2019-08-07 08:00:00 14 2 Este 5 Sudeste 0 -- -- 83
2019-08-07 07:00:00 13.5 3 Este 5 Este 0 -- -- 82
2019-08-07 06:00:00 13.9 3 Este 5 Oeste 0 -- -- 80
2019-08-07 05:00:00 14.9 3 Este 7 Sudoeste 0 -- -- 76
2019-08-07 04:00:00 15.2 3 Este 5 Sudeste 0 -- -- 74
2019-08-07 03:00:00 15.1 2 Sudeste 5 Sudeste 0 -- -- 75
2019-08-07 02:00:00 15.7 0 Calma 6 Sudeste 0 -- -- 73
2019-08-07 01:00:00 16.5 3 Este 6 Sudeste 0 -- -- 70
2019-08-07 00:00:00 17.8 2 Nordeste 6 Sudoeste 0 -- -- 66
2019-08-06 23:00:00 18.6 3 Este 4 Sudeste 0 -- -- 64
2019-08-06 22:00:00 20 2 Sudeste 5 Sudeste 0 -- -- 59
2019-08-06 21:00:00 23.9 3 Sudeste 13 Sudoeste 0 -- -- 50
2019-08-06 20:00:00 26.3 3 Sudoeste 18 Oeste 0 -- -- 42
2019-08-06 19:00:00 28.8 12 Oeste 26 Sudoeste 0 -- -- 33
2019-08-06 18:00:00 30.1 11 Sudoeste 31 Sudoeste 0 -- -- 30
2019-08-06 17:00:00 31 15 Sudoeste 32 Oeste 0 -- -- 24
2019-08-06 16:00:00 32.5 8 Sur 31 Sur 0 -- -- 23
2019-08-06 15:00:00 29.8 12 Sudoeste 33 Sudoeste 0 -- -- 25
2019-08-06 14:00:00 32.8 8 Sur 31 Sudeste 0 -- -- 23
2019-08-06 13:00:00 31.7 9 Sur 23 Sudoeste 0 -- -- 26
2019-08-06 12:00:00 29.5 5 Sur 15 Sudoeste 0 -- -- 35
2019-08-06 11:00:00 27.1 4 Oeste 8 Noroeste 0 -- -- 39
2019-08-06 10:00:00 23.2 2 Nordeste 5 Nordeste 0 -- -- 52
2019-08-06 09:00:00 15.2 0 Calma 4 Este 0 -- -- 86
2019-08-06 08:00:00 13.4 0 Calma 3 Sudoeste 0 -- -- 88
2019-08-06 07:00:00 13 2 Este 4 Sudeste 0 -- -- 90
2019-08-06 06:00:00 13.5 0 Calma 5 Este 0 -- -- 90
2019-08-06 05:00:00 13.7 0 Calma 6 Sudeste 0 -- -- 88
2019-08-06 04:00:00 14.6 0 Calma 5 Sudeste 0 -- -- 85
2019-08-06 03:00:00 15.2 0 Calma 4 Este 0 -- -- 82
2019-08-06 02:00:00 15.9 0 Calma 6 Sudeste 0 -- -- 79
2019-08-06 01:00:00 17.2 0 Calma 8 Sudeste 0 -- -- 71
2019-08-06 00:00:00 17.4 0 Calma 6 Sudeste 0 -- -- 69
2019-08-05 23:00:00 19.1 0 Calma 6 Sudeste 0 -- -- 57
2019-08-05 22:00:00 20 3 Nordeste 7 Norte 0 -- -- 52
2019-08-05 21:00:00 22.3 0 Calma 7 Sudeste 0 -- -- 43
2019-08-05 20:00:00 27.2 2 Oeste 23 Sudoeste 0 -- -- 29
2019-08-05 19:00:00 29.6 12 Sudoeste 29 Sudoeste 0 -- -- 25
2019-08-05 18:00:00 32.1 14 Sudoeste 33 Sudoeste 0 -- -- 23
2019-08-05 17:00:00 31.8 15 Sudoeste 32 Sudoeste 0 -- -- 24
2019-08-05 16:00:00 32.5 13 Sur 41 Sudoeste 0 -- -- 22
2019-08-05 15:00:00 32.2 14 Sudoeste 40 Sudoeste 0 -- -- 22
2019-08-05 14:00:00 31.9 15 Sudoeste 36 Sudoeste 0 -- -- 26
2019-08-05 13:00:00 31.2 10 Sudoeste 23 Sudoeste 0 -- -- 33
2019-08-05 12:00:00 28.7 6 Sudoeste 15 Sudoeste 0 -- -- 42
2019-08-05 11:00:00 27.4 5 Sur 10 Sudeste 0 -- -- 44
2019-08-05 10:00:00 23.3 0 Calma 0 Calma 0 -- -- 51
2019-08-05 09:00:00 15.2 0 Calma 0 Calma 0 -- -- 85
2019-08-05 08:00:00 13.1 0 Calma 0 Calma 0 -- -- 87
2019-08-05 07:00:00 12.4 0 Calma 0 Calma 0 -- -- 89
2019-08-05 06:00:00 12.9 0 Calma 3 Este 0 -- -- 88
2019-08-05 05:00:00 13.5 0 Calma 3 Este 0 -- -- 84
2019-08-05 04:00:00 14.1 0 Calma 4 Sudeste 0 -- -- 81
2019-08-05 03:00:00 14.7 0 Calma 4 Este 0 -- -- 78
2019-08-05 02:00:00 15.3 3 Sudeste 5 Sudeste 0 -- -- 75
2019-08-05 01:00:00 16.5 2 Este 5 Sudeste 0 -- -- 71
2019-08-05 00:00:00 17.5 0 Calma 6 Este 0 -- -- 66
2019-08-04 23:00:00 18.4 3 Este 6 Este 0 -- -- 61
2019-08-04 22:00:00 20.2 3 Este 7 Sudeste 0 -- -- 53
2019-08-04 21:00:00 23.5 2 Este 9 Sudeste 0 -- -- 40
2019-08-04 20:00:00 26.1 2 Norte 30 Sudoeste 0 -- -- 32
2019-08-04 19:00:00 30.8 14 Sudoeste 31 Sudoeste 0 -- -- 22
2019-08-04 18:00:00 30.3 12 Sudoeste 27 Sur 0 -- -- 22
2019-08-04 17:00:00 32.4 11 Sur 32 Sudoeste 0 -- -- 20
2019-08-04 16:00:00 32.8 14 Sudoeste 37 Sudoeste 0 -- -- 20
2019-08-04 15:00:00 33.1 9 Sudoeste 26 Sudoeste 0 -- -- 20
2019-08-04 14:00:00 31.2 18 Oeste 30 Sur 0 -- -- 27
2019-08-04 13:00:00 31.7 9 Sudoeste 24 Sudoeste 0 -- -- 28
2019-08-04 12:00:00 29.3 5 Sudoeste 13 Sudoeste 0 -- -- 38
2019-08-04 11:00:00 26.5 2 Sur 6 Sudeste 0 -- -- 43
2019-08-04 10:00:00 22.7 3 Este 5 Nordeste 0 -- -- 53
2019-08-04 09:00:00 14.8 3 Este 5 Nordeste 0 -- -- 84
2019-08-04 08:00:00 12.7 0 Calma 0 Calma 0 -- -- 88
2019-08-04 07:00:00 12.2 0 Calma 0 Calma 0 -- -- 89
2019-08-04 06:00:00 12.9 0 Calma 3 Este 0 -- -- 86
2019-08-04 05:00:00 13.2 2 Este 4 Este 0 -- -- 85
2019-08-04 04:00:00 13.7 0 Calma 3 Este 0 -- -- 82
2019-08-04 03:00:00 14.2 0 Calma 5 Sudeste 0 -- -- 80
2019-08-04 02:00:00 15.1 0 Calma 4 Nordeste 0 -- -- 78
2019-08-04 01:00:00 15.9 0 Calma 6 Sudeste 0 -- -- 73
2019-08-04 00:00:00 17.1 0 Calma 5 Sudeste 0 -- -- 68
2019-08-03 23:00:00 18.9 3 Sudeste 6 Nordeste 0 -- -- 61
2019-08-03 22:00:00 20.7 3 Noroeste 17 Sudoeste 0 -- -- 55
2019-08-03 21:00:00 25.9 5 Sudoeste 15 Sudoeste 0 -- -- 38
2019-08-03 20:00:00 27.8 9 Sudoeste 21 Sudoeste 0 -- -- 31
2019-08-03 19:00:00 30.3 9 Sur 28 Sudoeste 0 -- -- 30
2019-08-03 18:00:00 29.6 13 Sudoeste 30 Sudoeste 0 -- -- 30
2019-08-03 17:00:00 31.7 11 Sudoeste 26 Oeste 0 -- -- 27
2019-08-03 16:00:00 31.3 13 Sudoeste 30 Sudoeste 0 -- -- 26
2019-08-03 15:00:00 31.1 11 Sur 32 Sudoeste 0 -- -- 29
2019-08-03 14:00:00 30.8 14 Sudoeste 28 Sudoeste 0 -- -- 29
2019-08-03 13:00:00 29.3 13 Sudoeste 26 Sudoeste 0 -- -- 33
2019-08-03 12:00:00 27.8 4 Sudoeste 12 Sudoeste 0 -- -- 37
2019-08-03 11:00:00 24.6 4 Sudoeste 8 Sur 0 -- -- 40
2019-08-03 10:00:00 20.9 0 Calma 0 Calma 0 -- -- 50
2019-08-03 09:00:00 13.6 0 Calma 0 Calma 0 -- -- 81
2019-08-03 08:00:00 11 0 Calma 0 Calma 0 -- -- 85
2019-08-03 07:00:00 10.3 0 Calma 0 Calma 0 -- -- 89
2019-08-03 06:00:00 10.3 0 Calma 0 Calma 0 -- -- 89
2019-08-03 05:00:00 10.5 0 Calma 0 Calma 0 -- -- 88
2019-08-03 04:00:00 11.2 0 Calma 0 Calma 0 -- -- 86
2019-08-03 03:00:00 11.9 0 Calma 5 Sudeste 0 -- -- 81
2019-08-03 02:00:00 12.8 0 Calma 4 Sudeste 0 -- -- 76
2019-08-03 01:00:00 13.5 0 Calma 6 Sudoeste 0 -- -- 75
2019-08-03 00:00:00 14.7 2 Sudoeste 6 Sudoeste 0 -- -- 72
2019-08-02 23:00:00 16.3 2 Sudeste 9 Sudeste 0 -- -- 67
2019-08-02 22:00:00 20.2 5 Este 19 Este 0 -- -- 58
2019-08-02 21:00:00 23 9 Nordeste 28 Norte 0 -- -- 50
2019-08-02 20:00:00 23.9 10 Norte 26 Norte 0 -- -- 48
2019-08-02 19:00:00 25.5 8 Norte 24 Norte 0 -- -- 44
2019-08-02 18:00:00 27.5 10 Sur 29 Sudoeste 0 -- -- 37
2019-08-02 17:00:00 30.9 10 Sudoeste 27 Oeste 0 -- -- 30
2019-08-02 16:00:00 30.1 14 Sudoeste 27 Sudoeste 0 -- -- 31
2019-08-02 15:00:00 30.1 11 Oeste 30 Sudoeste 0 -- -- 31
2019-08-02 14:00:00 29.2 15 Sudoeste 25 Sudoeste 0 -- -- 31
2019-08-02 13:00:00 28.6 7 Sudoeste 22 Sudoeste 0 -- -- 31
2019-08-02 12:00:00 26.7 8 Sudoeste 22 Sudoeste 0 -- -- 36
2019-08-02 11:00:00 23 7 Sudoeste 13 Sudoeste 0 -- -- 51
2019-08-02 10:00:00 20.8 3 Este 6 Este 0 -- -- 59
2019-08-02 09:00:00 13.5 4 Este 5 Sudeste 0 -- -- 93
2019-08-02 08:00:00 11.4 0 Calma 5 Sudeste 0 -- -- 94
2019-08-02 07:00:00 10.9 0 Calma 5 Este 0 -- -- 94
2019-08-02 06:00:00 11.5 2 Sudoeste 5 Sudeste 0 -- -- 92
2019-08-02 05:00:00 12.3 3 Sudeste 5 Sudeste 0 -- -- 92
2019-08-02 04:00:00 13.1 2 Este 6 Sudeste 0 -- -- 91
2019-08-02 03:00:00 14.4 0 Calma 13 Oeste 0 -- -- 88
2019-08-02 02:00:00 16.5 6 Oeste 12 Nordeste 0 -- -- 76
2019-08-02 01:00:00 15.5 3 Sur 8 Este 0 -- -- 76
2019-08-02 00:00:00 16.9 0 Calma 17 Este 0 -- -- 71
2019-08-01 23:00:00 17.4 3 Este 9 Nordeste 0 -- -- 71
2019-08-01 22:00:00 18.4 4 Este 8 Este 0 -- -- 71
2019-08-01 21:00:00 20.4 3 Este 8 Norte 0 -- -- 63
2019-08-01 20:00:00 23.5 0 Calma 8 Sudoeste 0 -- -- 55
2019-08-01 19:00:00 25.6 6 Oeste 26 Oeste 0 -- -- 40
2019-08-01 18:00:00 27.2 15 Oeste 28 Sudoeste 0 -- -- 35
2019-08-01 17:00:00 26.9 10 Sudoeste 22 Oeste 0 -- -- 36
2019-08-01 16:00:00 26.4 12 Oeste 32 Oeste 0 -- -- 40
2019-08-01 15:00:00 28.2 18 Sudoeste 32 Sudoeste 0 -- -- 37
2019-08-01 14:00:00 25.7 15 Oeste 28 Sudoeste 0 -- -- 43
2019-08-01 13:00:00 24.2 14 Oeste 27 Sudoeste 0 -- -- 47
2019-08-01 12:00:00 23.6 11 Oeste 26 Oeste 0 -- -- 50
2019-08-01 11:00:00 21.1 4 Este 10 Nordeste 0 -- -- 62
2019-08-01 10:00:00 20.2 2 Sudoeste 5 Oeste 0 -- -- 70
2019-08-01 09:00:00 14.8 3 Este 6 Sudeste 0 -- -- 96
2019-08-01 08:00:00 13 2 Este 5 Nordeste 0 -- -- 97
2019-08-01 07:00:00 13.2 3 Sudoeste 6 Sudoeste 0 -- -- 97
2019-08-01 06:00:00 14 3 Este 13 Sudoeste 0 -- -- 96
2019-08-01 05:00:00 14.4 3 Este 8 Sudoeste 0 -- -- 96
2019-08-01 04:00:00 14.1 3 Este 10 Oeste 0.4 -- -- 94
2019-08-01 03:00:00 14 4 Este 12 Este 0.8 -- -- 91
2019-08-01 02:00:00 13.6 3 Nordeste 8 Este 0 -- -- 82
2019-08-01 01:00:00 14 2 Sur 6 Sudeste 0 -- -- 80
2019-08-01 00:00:00 14.7 0 Calma 4 Sudeste 0 -- -- 78
2019-07-31 23:00:00 16.1 3 Sudeste 6 Sudeste 0 -- -- 72
2019-07-31 22:00:00 17.5 0 Calma 6 Sur 0 -- -- 67
2019-07-31 21:00:00 21.2 3 Sur 21 Oeste 0 -- -- 54
2019-07-31 20:00:00 23.4 12 Oeste 26 Oeste 0 -- -- 44
2019-07-31 19:00:00 26.2 13 Oeste 30 Sudoeste 0 -- -- 38
2019-07-31 18:00:00 27.2 15 Sudoeste 27 Sudoeste 0 -- -- 36
2019-07-31 17:00:00 28.2 14 Sudoeste 30 Sudoeste 0 -- -- 34
2019-07-31 16:00:00 28.2 13 Sudoeste 27 Oeste 0 -- -- 34
2019-07-31 15:00:00 27.7 11 Sudoeste 27 Sudoeste 0 -- -- 33
2019-07-31 14:00:00 27 14 Sudoeste 23 Sudoeste 0 -- -- 33
2019-07-31 13:00:00 25.6 9 Oeste 21 Sudoeste 0 -- -- 36
2019-07-31 12:00:00 23.8 6 Sudoeste 17 Sudoeste 0 -- -- 37
2019-07-31 11:00:00 20.6 3 Sudoeste 9 Sudoeste 0 -- -- 40
2019-07-31 10:00:00 17.8 2 Sudoeste 5 Este 0 -- -- 50
2019-07-31 09:00:00 10.8 0 Calma 6 Sudeste 0 -- -- 79
2019-07-31 08:00:00 7.5 0 Calma 6 Este 0 -- -- 87
2019-07-31 07:00:00 6.6 0 Calma 5 Sudeste 0 -- -- 90
2019-07-31 06:00:00 7.3 0 Calma 3 Este 0 -- -- 89
2019-07-31 05:00:00 7.8 2 Este 4 Sudeste 0 -- -- 87
2019-07-31 04:00:00 8.4 2 Norte 7 Sudeste 0 -- -- 86
2019-07-31 03:00:00 9.2 0 Calma 5 Sudeste 0 -- -- 83
2019-07-31 02:00:00 9.9 0 Calma 3 Sudeste 0 -- -- 80
2019-07-31 01:00:00 11.2 2 Sur 6 Sudeste 0 -- -- 74
2019-07-31 00:00:00 12 3 Este 6 Nordeste 0 -- -- 71
2019-07-30 23:00:00 14.5 3 Sur 17 Nordeste 0 -- -- 61
2019-07-30 22:00:00 17.1 7 Nordeste 24 Norte 0 -- -- 52
2019-07-30 21:00:00 18.2 9 Nordeste 24 Nordeste 0 -- -- 50
2019-07-30 20:00:00 22.6 9 Sur 27 Sudoeste 0 -- -- 35
2019-07-30 19:00:00 23.5 9 Sudoeste 30 Sudoeste 0 -- -- 36
2019-07-30 18:00:00 25.8 13 Sudoeste 37 Sudoeste 0 -- -- 35
2019-07-30 17:00:00 25.6 17 Sudoeste 31 Sudoeste 0 -- -- 38
2019-07-30 16:00:00 23.8 14 Sudoeste 40 Sudoeste 0 -- -- 40
2019-07-30 15:00:00 26.4 11 Sur 39 Sudoeste 0 -- -- 35
2019-07-30 14:00:00 25.1 9 Sur 44 Sudoeste 0 -- -- 37
2019-07-30 13:00:00 25.2 17 Sudoeste 36 Sudoeste 0 -- -- 40
2019-07-30 12:00:00 25.1 15 Oeste 29 Sudoeste 0 -- -- 46
2019-07-30 11:00:00 22.9 17 Oeste 25 Sudoeste 0 -- -- 52
2019-07-30 10:00:00 19.2 2 Nordeste 4 Este 0 -- -- 65
2019-07-30 09:00:00 16.4 0 Calma 4 Sudeste 0 -- -- 72
2019-07-30 08:00:00 14.8 0 Calma 3 Sudoeste 0 -- -- 78
2019-07-30 07:00:00 14.3 3 Oeste 5 Sudeste 0 -- -- 78
2019-07-30 06:00:00 14 0 Calma 5 Este 0 -- -- 78
2019-07-30 05:00:00 13.3 3 Sudeste 5 Sudeste 0 -- -- 80
2019-07-30 04:00:00 13.4 3 Este 4 Este 0 -- -- 78
2019-07-30 03:00:00 14.4 0 Calma 5 Sudeste 0 -- -- 73
2019-07-30 02:00:00 14.2 0 Calma 4 Sudeste 0 -- -- 74
2019-07-30 01:00:00 15.3 2 Sur 5 Sudeste 0 -- -- 70
2019-07-30 00:00:00 14.7 2 Sudeste 4 Sudeste 0 -- -- 70
2019-07-29 23:00:00 16.1 2 Este 6 Sudoeste 0 -- -- 63
2019-07-29 22:00:00 19 2 Sudeste 19 Nordeste 0 -- -- 55
2019-07-29 21:00:00 21.6 5 Este 18 Sudoeste 0 -- -- 48
2019-07-29 20:00:00 24.5 8 Oeste 23 Sudoeste 0 -- -- 35
2019-07-29 19:00:00 27.8 14 Sudoeste 26 Sudoeste 0 -- -- 30
2019-07-29 18:00:00 29.1 10 Sudoeste 29 Oeste 0 -- -- 28
2019-07-29 17:00:00 28.6 14 Sudoeste 27 Oeste 0 -- -- 29
2019-07-29 16:00:00 28.7 16 Oeste 31 Sudoeste 0 -- -- 28
2019-07-29 15:00:00 28.2 16 Oeste 30 Sudoeste 0 -- -- 27
2019-07-29 14:00:00 27.3 19 Oeste 29 Oeste 0 -- -- 26
2019-07-29 13:00:00 25.9 16 Oeste 26 Sudoeste 0 -- -- 25
2019-07-29 12:00:00 24.4 5 Oeste 13 Oeste 0 -- -- 34
2019-07-29 11:00:00 22 3 Oeste 8 Sudoeste 0 -- -- 37
2019-07-29 10:00:00 18.9 2 Este 5 Nordeste 0 -- -- 50
2019-07-29 09:00:00 10.3 2 Este 5 Este 0 -- -- 90
2019-07-29 08:00:00 7.7 2 Sudoeste 5 Este 0 -- -- 93
2019-07-29 07:00:00 7.1 0 Calma 3 Este 0 -- -- 94
2019-07-29 06:00:00 7.7 0 Calma 6 Sudeste 0 -- -- 92
2019-07-29 05:00:00 8.3 2 Este 4 Este 0 -- -- 91
2019-07-29 04:00:00 8.9 0 Calma 5 Sudeste 0 -- -- 91
2019-07-29 03:00:00 9.4 0 Calma 4 Sudoeste 0 -- -- 89
2019-07-29 02:00:00 10.3 0 Calma 4 Sudeste 0 -- -- 86
2019-07-29 01:00:00 11.6 0 Calma 6 Sudeste 0 -- -- 80
2019-07-29 00:00:00 12.5 2 Este 5 Sudeste 0 -- -- 77
2019-07-28 23:00:00 13.9 2 Sudeste 5 Sudeste 0 -- -- 70
2019-07-28 22:00:00 15.5 0 Calma 5 Sudeste 0 -- -- 66
2019-07-28 21:00:00 19.7 3 Sudoeste 27 Oeste 0 -- -- 48
2019-07-28 20:00:00 21.5 14 Oeste 29 Oeste 0 -- -- 39
2019-07-28 19:00:00 25.4 8 Sudoeste 25 Sudoeste 0 -- -- 30
2019-07-28 18:00:00 26.3 8 Sur 28 Sudoeste 0 -- -- 28
2019-07-28 17:00:00 26 15 Oeste 26 Sudoeste 0 -- -- 29
2019-07-28 16:00:00 25.9 13 Oeste 27 Sudoeste 0 -- -- 27
2019-07-28 15:00:00 26 7 Oeste 18 Este 0 -- -- 25
2019-07-28 14:00:00 23.8 9 Nordeste 18 Este 0 -- -- 29
2019-07-28 13:00:00 22.8 9 Nordeste 24 Nordeste 0 -- -- 29
2019-07-28 12:00:00 20.8 10 Nordeste 39 Nordeste 0 -- -- 30
2019-07-28 11:00:00 18.5 19 Este 37 Nordeste 0 -- -- 35
2019-07-28 10:00:00 17.5 13 Nordeste 39 Este 0 -- -- 38
2019-07-28 09:00:00 15.6 15 Nordeste 31 Este 0 -- -- 40
2019-07-28 08:00:00 13.6 4 Noroeste 39 Nordeste 0 -- -- 47
2019-07-28 07:00:00 14 18 Este 42 Este 0 -- -- 50
2019-07-28 06:00:00 13.1 10 Este 33 Este 0 -- -- 51
2019-07-28 05:00:00 14 14 Nordeste 38 Nordeste 0 -- -- 48
2019-07-28 04:00:00 14.4 14 Este 39 Este 0 -- -- 50
2019-07-28 03:00:00 14.2 16 Nordeste 45 Este 0 -- -- 52
2019-07-28 02:00:00 13.9 18 Este 43 Este 0 -- -- 54
2019-07-28 01:00:00 14.1 22 Nordeste 54 Este 0 -- -- 57
2019-07-28 00:00:00 14.9 18 Este 43 Nordeste 0 -- -- 55
2019-07-27 23:00:00 15 18 Nordeste 43 Nordeste 0 -- -- 56
2019-07-26 12:00:00 -- -- -- -- -- -- -- -- --
2019-07-26 11:00:00 22.9 8 Sudoeste 22 Sudoeste 0 -- -- 53
2019-07-26 10:00:00 21.1 2 Este 6 Sudeste 0 -- -- 68
2019-07-26 09:00:00 17.6 0 Calma 6 Sudoeste 0 -- -- 76
2019-07-26 08:00:00 16.7 0 Calma 3 Este 0 -- -- 74
2019-07-26 07:00:00 16.1 0 Calma 0 Calma 0 -- -- 75
2019-07-26 06:00:00 15.7 0 Calma 0 Calma 0 -- -- 76
2019-07-26 05:00:00 15.2 0 Calma 0 Calma 0 -- -- 77
2019-07-26 04:00:00 15 0 Calma 0 Calma 0 -- -- 78
2019-07-26 03:00:00 15.6 0 Calma 0 Calma 0 -- -- 73
2019-07-26 02:00:00 16.8 0 Calma 0 Calma 0 -- -- 71
2019-07-26 01:00:00 17.9 0 Calma 0 Calma 0 -- -- 69
2019-07-26 00:00:00 19.2 0 Calma 0 Calma 0 -- -- 67
2019-07-25 23:00:00 21.2 0 Calma 9 Sudeste 0 -- -- 61
2019-07-25 22:00:00 24.7 5 Oeste 22 Sudoeste 0 -- -- 50
2019-07-25 21:00:00 27.5 12 Sudoeste 31 Sudoeste 0 -- -- 39
2019-07-25 20:00:00 29.4 15 Sudoeste 33 Sudoeste 0 -- -- 30
2019-07-25 19:00:00 32 17 Sudoeste 34 Sudoeste 0 -- -- 24
2019-07-25 18:00:00 33.3 16 Sudoeste 31 Sudoeste 0 -- -- 20
2019-07-25 17:00:00 33.9 17 Sudoeste 36 Sudoeste 0 -- -- 20
2019-07-25 16:00:00 34.5 14 Sudoeste 29 Sudoeste 0 -- -- 21
2019-07-25 15:00:00 34 12 Sur 28 Sur 0 -- -- 21
2019-07-25 14:00:00 33.9 18 Sudoeste 30 Sudoeste 0 -- -- 20
2019-07-25 13:00:00 32.3 13 Sudoeste 27 Sudoeste 0 -- -- 21
2019-07-25 12:00:00 31.2 5 Sur 14 Sudoeste 0 -- -- 28
2019-07-25 11:00:00 28.8 0 Calma 0 Calma 0 -- -- 31
2019-07-25 10:00:00 24.6 0 Calma 0 Calma 0 -- -- 41
2019-07-25 09:00:00 17.2 0 Calma 0 Calma 0 -- -- 68
2019-07-25 08:00:00 13.5 0 Calma 0 Calma 0 -- -- 75
2019-07-25 07:00:00 12.9 0 Calma 0 Calma 0 -- -- 76
2019-07-25 06:00:00 13.6 0 Calma 0 Calma 0 -- -- 75
2019-07-25 05:00:00 14 0 Calma 0 Calma 0 -- -- 74
2019-07-25 04:00:00 14.6 0 Calma 0 Calma 0 -- -- 68
2019-07-25 03:00:00 15.1 0 Calma 0 Calma 0 -- -- 64
2019-07-25 02:00:00 15.9 0 Calma 4 Sudeste 0 -- -- 61
2019-07-25 01:00:00 16.8 3 Este 6 Sudeste 0 -- -- 55
2019-07-25 00:00:00 18.1 2 Este 6 Sudoeste 0 -- -- 50
2019-07-24 23:00:00 19.6 3 Este 6 Nordeste 0 -- -- 45
2019-07-24 22:00:00 21.5 4 Nordeste 9 Norte 0 -- -- 40
2019-07-24 21:00:00 24.5 2 Este 8 Oeste 0 -- -- 37
2019-07-24 20:00:00 29.7 6 Sudoeste 22 Sudoeste 0 -- -- 23
2019-07-24 19:00:00 32.8 13 Sudoeste 30 Sudoeste 0 -- -- 19
2019-07-24 18:00:00 33.6 16 Sudoeste 39 Sudoeste 0 -- -- 19
2019-07-24 17:00:00 34.4 18 Sudoeste 30 Oeste 0 -- -- 20
2019-07-24 16:00:00 35.6 10 Sudoeste 29 Oeste 0 -- -- 18
2019-07-24 15:00:00 35.4 11 Sudoeste 30 Sudoeste 0 -- -- 16
2019-07-24 14:00:00 34.6 13 Sudoeste 27 Sudoeste 0 -- -- 18
2019-07-24 13:00:00 33.9 11 Sudoeste 23 Sudoeste 0 -- -- 20
2019-07-24 12:00:00 32.2 4 Sudoeste 11 Oeste 0 -- -- 25
2019-07-24 11:00:00 28.4 3 Este 6 Este 0 -- -- 31
2019-07-24 10:00:00 25.3 0 Calma 7 Nordeste 0 -- -- 39
2019-07-24 09:00:00 17.1 2 Este 5 Sudeste 0 -- -- 67
2019-07-24 08:00:00 13.4 0 Calma 5 Este 0 -- -- 73
2019-07-24 07:00:00 12.9 0 Calma 6 Sudeste 0 -- -- 71
2019-07-24 06:00:00 13.3 0 Calma 6 Sudeste 0 -- -- 71
2019-07-24 05:00:00 14.3 2 Sudeste 5 Sudoeste 0 -- -- 69
2019-07-24 04:00:00 14.6 0 Calma 6 Sudeste 0 -- -- 69
2019-07-24 03:00:00 15.3 0 Calma 5 Este 0 -- -- 66
2019-07-24 02:00:00 16.1 0 Calma 6 Sudeste 0 -- -- 62
2019-07-24 01:00:00 17.1 0 Calma 4 Este 0 -- -- 59
2019-07-24 00:00:00 18.5 3 Oeste 6 Sudeste 0 -- -- 54
2019-07-23 23:00:00 20 3 Sudoeste 11 Este 0 -- -- 46
2019-07-23 22:00:00 21.7 4 Este 9 Este 0 -- -- 41
2019-07-23 21:00:00 24.8 2 Sudeste 13 Sudoeste 0 -- -- 38
2019-07-23 20:00:00 30.2 8 Sudoeste 19 Sudoeste 0 -- -- 23
2019-07-23 19:00:00 33.5 11 Sudoeste 30 Sudoeste 0 -- -- 20
2019-07-23 18:00:00 34.5 10 Sudoeste 28 Sudoeste 0 -- -- 19
2019-07-23 17:00:00 34.3 11 Sudoeste 31 Sudoeste 0 -- -- 19
2019-07-23 16:00:00 34.9 10 Sur 29 Sudoeste 0 -- -- 19
2019-07-23 15:00:00 35.3 11 Sudeste 30 Sudoeste 0 -- -- 20
2019-07-23 14:00:00 35.6 9 Sudeste 22 Sudoeste 0 -- -- 21
2019-07-23 13:00:00 33.3 6 Sur 21 Sudoeste 0 -- -- 22
2019-07-23 12:00:00 31.5 6 Sudoeste 15 Sudoeste 0 -- -- 25
2019-07-23 11:00:00 28.4 4 Oeste 9 Sudoeste 0 -- -- 32
2019-07-23 10:00:00 25.1 0 Calma 0 Calma 0 -- -- 40
2019-07-23 09:00:00 17.2 0 Calma 0 Calma 0 -- -- 68
2019-07-23 08:00:00 13.5 0 Calma 0 Calma 0 -- -- 74
2019-07-23 07:00:00 12.6 0 Calma 0 Calma 0 -- -- 74
2019-07-23 06:00:00 13.1 0 Calma 0 Calma 0 -- -- 73
2019-07-23 05:00:00 13.7 0 Calma 0 Calma 0 -- -- 72
2019-07-23 04:00:00 14.3 0 Calma 0 Calma 0 -- -- 69
2019-07-23 03:00:00 15.1 0 Calma 0 Calma 0 -- -- 66
2019-07-23 02:00:00 15.8 0 Calma 0 Calma 0 -- -- 61
2019-07-23 01:00:00 16.8 0 Calma 0 Calma 0 -- -- 57
2019-07-23 00:00:00 17.7 0 Calma 6 Sudeste 0 -- -- 53
2019-07-22 23:00:00 19.5 2 Este 7 Sudeste 0 -- -- 47
2019-07-22 22:00:00 21.5 5 Este 9 Este 0 -- -- 43
2019-07-22 21:00:00 24.6 2 Este 19 Sudoeste 0 -- -- 38
2019-07-22 20:00:00 29.9 10 Sudoeste 28 Sudoeste 0 -- -- 24
2019-07-22 19:00:00 32.5 12 Sudoeste 32 Sudoeste 0 -- -- 23
2019-07-22 18:00:00 33.5 12 Sudoeste 30 Sudoeste 0 -- -- 24
2019-07-22 17:00:00 34.3 17 Sudoeste 34 Oeste 0 -- -- 23
2019-07-22 16:00:00 34.4 18 Sudoeste 35 Sudoeste 0 -- -- 23
2019-07-22 15:00:00 34.2 12 Sudoeste 28 Oeste 0 -- -- 24
2019-07-22 14:00:00 33.9 11 Oeste 25 Sudoeste 0 -- -- 24
2019-07-22 13:00:00 33 10 Oeste 19 Sudoeste 0 -- -- 24
2019-07-22 12:00:00 30.7 5 Sudoeste 11 Sudoeste 0 -- -- 31
2019-07-22 11:00:00 27.8 3 Este 15 Noroeste 0 -- -- 39
2019-07-22 10:00:00 24.3 2 Este 7 Oeste 0 -- -- 49
2019-07-22 09:00:00 17.9 0 Calma 5 Sudoeste 0 -- -- 73
2019-07-22 08:00:00 14.3 0 Calma 6 Sudoeste 0 -- -- 81
2019-07-22 07:00:00 13.2 0 Calma 0 Calma 0 -- -- 82
2019-07-22 06:00:00 13.7 0 Calma 0 Calma 0 -- -- 80
2019-07-22 05:00:00 14.7 0 Calma 0 Calma 0 -- -- 77
2019-07-22 04:00:00 14.9 0 Calma 0 Calma 0 -- -- 79
2019-07-22 03:00:00 15.7 0 Calma 0 Calma 0 -- -- 76
2019-07-22 02:00:00 16.6 0 Calma 0 Calma 0 -- -- 74
2019-07-22 01:00:00 17.7 0 Calma 0 Calma 0 -- -- 69
2019-07-22 00:00:00 18.6 0 Calma 6 Sudeste 0 -- -- 67
2019-07-21 23:00:00 20 0 Calma 5 Este 0 -- -- 61
2019-07-21 22:00:00 21.9 0 Calma 13 Noroeste 0 -- -- 55
2019-07-21 21:00:00 26.9 10 Oeste 27 Oeste 0 -- -- 39
2019-07-21 20:00:00 28.8 6 Sudoeste 22 Sudoeste 0 -- -- 36
2019-07-21 19:00:00 30.7 11 Oeste 24 Sudoeste 0 -- -- 32
2019-07-21 18:00:00 31.4 17 Oeste 30 Sudoeste 0 -- -- 32
2019-07-21 17:00:00 32.4 17 Sudoeste 33 Sudoeste 0 -- -- 30
2019-07-21 16:00:00 33.3 13 Sudoeste 30 Sudoeste 0 -- -- 29
2019-07-21 15:00:00 32 16 Sudoeste 32 Sudoeste 0 -- -- 30
2019-07-21 14:00:00 31.6 18 Sudoeste 32 Sudoeste 0 -- -- 29
2019-07-21 13:00:00 30.7 14 Oeste 28 Sudoeste 0 -- -- 31
2019-07-21 12:00:00 28.7 9 Sudoeste 14 Oeste 0 -- -- 36
2019-07-21 11:00:00 26.8 0 Calma 0 Calma 0 -- -- 42
2019-07-21 10:00:00 23 0 Calma 0 Calma 0 -- -- 56
2019-07-21 09:00:00 18.3 0 Calma 0 Calma 0 -- -- 74
2019-07-21 08:00:00 15 0 Calma 0 Calma 0 -- -- 88
2019-07-21 07:00:00 14.1 0 Calma 0 Calma 0 -- -- 89
2019-07-21 06:00:00 14.3 0 Calma 0 Calma 0 -- -- 88
2019-07-21 05:00:00 14.6 0 Calma 0 Calma 0 -- -- 87
2019-07-21 04:00:00 15.4 0 Calma 5 Oeste 0 -- -- 84
2019-07-21 03:00:00 16.4 3 Norte 5 Sudeste 0 -- -- 80
2019-07-21 02:00:00 17 0 Calma 4 Sudeste 0 -- -- 77
2019-07-21 01:00:00 18.1 3 Sudeste 5 Sudeste 0 -- -- 72
2019-07-21 00:00:00 18.6 3 Este 6 Sudeste 0 -- -- 65